sensor_id;sensor_type;location;lat;lon;timestamp;pressure;altitude;pressure_sealevel;temperature;humidity
37202;BME280;37799;52.390;6.136;2022-09-25T00:00:10;101552.84;;;7.37;100.00
37202;BME280;37799;52.390;6.136;2022-09-25T00:02:35;101555.41;;;7.36;100.00
37202;BME280;37799;52.390;6.136;2022-09-25T00:05:00;101550.28;;;7.33;100.00
37202;BME280;37799;52.390;6.136;2022-09-25T00:07:26;101555.44;;;7.30;100.00
37202;BME280;37799;52.390;6.136;2022-09-25T00:09:51;101559.72;;;7.26;100.00
37202;BME280;37799;52.390;6.136;2022-09-25T00:12:16;101564.88;;;7.23;100.00
37202;BME280;37799;52.390;6.136;2022-09-25T00:14:41;101564.03;;;7.20;100.00
37202;BME280;37799;52.390;6.136;2022-09-25T00:17:07;101566.59;;;7.18;100.00
37202;BME280;37799;52.390;6.136;2022-09-25T00:19:32;101564.03;;;7.17;100.00
37202;BME280;37799;52.390;6.136;2022-09-25T00:22:21;101564.88;;;7.16;100.00
37202;BME280;37799;52.390;6.136;2022-09-25T00:24:47;101563.16;;;7.13;100.00
37202;BME280;37799;52.390;6.136;2022-09-25T00:27:14;101571.75;;;7.12;100.00
37202;BME280;37799;52.390;6.136;2022-09-25T00:29:39;101576.91;;;7.10;100.00
37202;BME280;37799;52.390;6.136;2022-09-25T00:32:07;101571.75;;;7.09;100.00
37202;BME280;37799;52.390;6.136;2022-09-25T00:34:32;101576.91;;;7.07;100.00
37202;BME280;37799;52.390;6.136;2022-09-25T00:36:58;101576.03;;;7.08;100.00
37202;BME280;37799;52.390;6.136;2022-09-25T00:39:23;101586.34;;;7.05;100.00
37202;BME280;37799;52.390;6.136;2022-09-25T00:41:50;101586.34;;;7.04;100.00
37202;BME280;37799;52.390;6.136;2022-09-25T00:44:54;101583.78;;;7.07;100.00
37202;BME280;37799;52.390;6.136;2022-09-25T00:52:40;101585.50;;;7.06;100.00
37202;BME280;37799;52.390;6.136;2022-09-25T00:55:07;101590.66;;;7.05;100.00
37202;BME280;37799;52.390;6.136;2022-09-25T00:57:35;101586.31;;;7.02;100.00
37202;BME280;37799;52.390;6.136;2022-09-25T01:00:06;101582.88;;;7.00;100.00
37202;BME280;37799;52.390;6.136;2022-09-25T01:02:33;101584.63;;;6.98;100.00
37202;BME280;37799;52.390;6.136;2022-09-25T01:05:03;101584.63;;;6.95;100.00
37202;BME280;37799;52.390;6.136;2022-09-25T01:07:38;101575.19;;;6.91;100.00
37202;BME280;37799;52.390;6.136;2022-09-25T01:10:06;101580.34;;;6.93;100.00
37202;BME280;37799;52.390;6.136;2022-09-25T01:12:34;101582.03;;;6.89;100.00
37202;BME280;37799;52.390;6.136;2022-09-25T01:14:59;101581.16;;;6.89;100.00
37202;BME280;37799;52.390;6.136;2022-09-25T01:20:24;101580.31;;;6.80;100.00
37202;BME280;37799;52.390;6.136;2022-09-25T01:29:08;101569.13;;;6.71;100.00
37202;BME280;37799;52.390;6.136;2022-09-25T01:32:01;101566.56;;;6.68;100.00
37202;BME280;37799;52.390;6.136;2022-09-25T01:37:19;101563.97;;;6.62;100.00
37202;BME280;37799;52.390;6.136;2022-09-25T01:40:14;101558.81;;;6.59;100.00
37202;BME280;37799;52.390;6.136;2022-09-25T01:45:21;101565.69;;;6.54;100.00
37202;BME280;37799;52.390;6.136;2022-09-25T01:47:49;101571.69;;;6.53;100.00
37202;BME280;37799;52.390;6.136;2022-09-25T01:50:24;101565.66;;;6.49;100.00
37202;BME280;37799;52.390;6.136;2022-09-25T01:52:52;101574.22;;;6.48;100.00
37202;BME280;37799;52.390;6.136;2022-09-25T01:55:27;101575.94;;;6.50;100.00
37202;BME280;37799;52.390;6.136;2022-09-25T01:58:03;101569.94;;;6.50;100.00
37202;BME280;37799;52.390;6.136;2022-09-25T02:00:34;101574.25;;;6.53;100.00
37202;BME280;37799;52.390;6.136;2022-09-25T02:03:11;101569.97;;;6.53;100.00
37202;BME280;37799;52.390;6.136;2022-09-25T02:05:45;101565.69;;;6.54;100.00
37202;BME280;37799;52.390;6.136;2022-09-25T02:08:38;101562.25;;;6.52;100.00
37202;BME280;37799;52.390;6.136;2022-09-25T02:11:05;101565.66;;;6.50;100.00
37202;BME280;37799;52.390;6.136;2022-09-25T02:13:36;101565.66;;;6.47;100.00
37202;BME280;37799;52.390;6.136;2022-09-25T02:16:07;101557.94;;;6.43;100.00
37202;BME280;37799;52.390;6.136;2022-09-25T02:18:34;101550.22;;;6.44;100.00
37202;BME280;37799;52.390;6.136;2022-09-25T02:26:45;101553.66;;;6.40;100.00
37202;BME280;37799;52.390;6.136;2022-09-25T02:29:12;101558.75;;;6.37;100.00
37202;BME280;37799;52.390;6.136;2022-09-25T02:31:41;101555.31;;;6.32;100.00
37202;BME280;37799;52.390;6.136;2022-09-25T02:34:07;101550.19;;;6.29;100.00
37202;BME280;37799;52.390;6.136;2022-09-25T02:36:33;101562.19;;;6.27;100.00
37202;BME280;37799;52.390;6.136;2022-09-25T02:39:00;101559.59;;;6.27;100.00
37202;BME280;37799;52.390;6.136;2022-09-25T02:41:42;101561.28;;;6.24;100.00
37202;BME280;37799;52.390;6.136;2022-09-25T02:44:33;101553.56;;;6.22;100.00
37202;BME280;37799;52.390;6.136;2022-09-25T02:47:28;101555.28;;;6.21;100.00
37202;BME280;37799;52.390;6.136;2022-09-25T02:55:45;101556.13;;;6.20;100.00
37202;BME280;37799;52.390;6.136;2022-09-25T02:58:16;101563.84;;;6.22;100.00
37202;BME280;37799;52.390;6.136;2022-09-25T03:00:45;101557.00;;;6.21;100.00
37202;BME280;37799;52.390;6.136;2022-09-25T03:03:12;101557.00;;;6.21;100.00
37202;BME280;37799;52.390;6.136;2022-09-25T03:05:39;101563.84;;;6.19;100.00
37202;BME280;37799;52.390;6.136;2022-09-25T03:08:05;101564.72;;;6.19;100.00
37202;BME280;37799;52.390;6.136;2022-09-25T03:10:50;101557.00;;;6.21;100.00
37202;BME280;37799;52.390;6.136;2022-09-25T03:15:44;101572.41;;;6.13;100.00
37202;BME280;37799;52.390;6.136;2022-09-25T03:18:11;101558.69;;;6.13;100.00
37202;BME280;37799;52.390;6.136;2022-09-25T03:20:37;101555.25;;;6.11;100.00
37202;BME280;37799;52.390;6.136;2022-09-25T03:23:03;101565.53;;;6.08;100.00
37202;BME280;37799;52.390;6.136;2022-09-25T03:25:28;101558.66;;;6.07;100.00
37202;BME280;37799;52.390;6.136;2022-09-25T03:27:53;101560.38;;;6.06;100.00
37202;BME280;37799;52.390;6.136;2022-09-25T03:30:19;101554.38;;;6.06;100.00
37202;BME280;37799;52.390;6.136;2022-09-25T03:32:44;101558.66;;;6.10;100.00
37202;BME280;37799;52.390;6.136;2022-09-25T03:35:10;101559.53;;;6.09;100.00
37202;BME280;37799;52.390;6.136;2022-09-25T03:37:35;101553.53;;;6.10;100.00
37202;BME280;37799;52.390;6.136;2022-09-25T03:40:00;101560.38;;;6.08;100.00
37202;BME280;37799;52.390;6.136;2022-09-25T03:42:26;101559.53;;;6.09;100.00
37202;BME280;37799;52.390;6.136;2022-09-25T03:44:52;101563.81;;;6.08;100.00
37202;BME280;37799;52.390;6.136;2022-09-25T03:47:18;101553.50;;;6.07;100.00
37202;BME280;37799;52.390;6.136;2022-09-25T03:49:43;101544.94;;;6.02;100.00
37202;BME280;37799;52.390;6.136;2022-09-25T03:52:08;101550.03;;;5.99;100.00
37202;BME280;37799;52.390;6.136;2022-09-25T03:54:39;101551.75;;;5.95;100.00
37202;BME280;37799;52.390;6.136;2022-09-25T03:57:04;101556.03;;;5.95;100.00
37202;BME280;37799;52.390;6.136;2022-09-25T03:59:30;101548.31;;;5.95;100.00
37202;BME280;37799;52.390;6.136;2022-09-25T04:01:55;101537.22;;;6.02;100.00
37202;BME280;37799;52.390;6.136;2022-09-25T04:04:20;101542.38;;;6.06;100.00
37202;BME280;37799;52.390;6.136;2022-09-25T04:06:46;101532.94;;;6.07;100.00
37202;BME280;37799;52.390;6.136;2022-09-25T04:09:12;101535.53;;;6.08;100.00
37202;BME280;37799;52.390;6.136;2022-09-25T04:11:37;101537.22;;;6.06;100.00
37202;BME280;37799;52.390;6.136;2022-09-25T04:14:03;101536.38;;;6.03;100.00
37202;BME280;37799;52.390;6.136;2022-09-25T04:16:29;101536.38;;;6.00;100.00
37202;BME280;37799;52.390;6.136;2022-09-25T04:18:55;101538.03;;;5.96;100.00
37202;BME280;37799;52.390;6.136;2022-09-25T04:21:20;101544.91;;;5.96;100.00
37202;BME280;37799;52.390;6.136;2022-09-25T04:23:46;101541.47;;;5.97;100.00
37202;BME280;37799;52.390;6.136;2022-09-25T04:26:31;101532.06;;;5.99;100.00
37202;BME280;37799;52.390;6.136;2022-09-25T04:28:56;101532.91;;;5.98;100.00
37202;BME280;37799;52.390;6.136;2022-09-25T04:31:29;101534.66;;;6.00;100.00
37202;BME280;37799;52.390;6.136;2022-09-25T04:33:54;101534.63;;;5.99;100.00
37202;BME280;37799;52.390;6.136;2022-09-25T04:36:20;101540.66;;;5.99;100.00
37202;BME280;37799;52.390;6.136;2022-09-25T04:38:45;101535.47;;;5.98;100.00
37202;BME280;37799;52.390;6.136;2022-09-25T04:41:13;101538.03;;;5.98;100.00
37202;BME280;37799;52.390;6.136;2022-09-25T04:43:40;101532.03;;;5.93;100.00
37202;BME280;37799;52.390;6.136;2022-09-25T04:46:08;101533.72;;;5.87;100.00
37202;BME280;37799;52.390;6.136;2022-09-25T04:48:34;101535.38;;;5.85;100.00
37202;BME280;37799;52.390;6.136;2022-09-25T04:50:59;101540.53;;;5.85;100.00
37202;BME280;37799;52.390;6.136;2022-09-25T04:53:26;101538.81;;;5.81;100.00
37202;BME280;37799;52.390;6.136;2022-09-25T04:55:52;101545.66;;;5.81;100.00
37202;BME280;37799;52.390;6.136;2022-09-25T04:58:21;101540.53;;;5.82;100.00
37202;BME280;37799;52.390;6.136;2022-09-25T05:00:46;101543.09;;;5.82;100.00
37202;BME280;37799;52.390;6.136;2022-09-25T05:03:12;101540.53;;;5.84;100.00
37202;BME280;37799;52.390;6.136;2022-09-25T05:05:37;101544.81;;;5.83;100.00
37202;BME280;37799;52.390;6.136;2022-09-25T05:08:02;101535.38;;;5.81;100.00
37202;BME280;37799;52.390;6.136;2022-09-25T05:10:30;101541.38;;;5.80;100.00
37202;BME280;37799;52.390;6.136;2022-09-25T05:12:57;101536.22;;;5.81;100.00
37202;BME280;37799;52.390;6.136;2022-09-25T05:15:24;101547.38;;;5.79;100.00
37202;BME280;37799;52.390;6.136;2022-09-25T05:17:49;101548.22;;;5.78;100.00
37202;BME280;37799;52.390;6.136;2022-09-25T05:20:16;101540.50;;;5.75;100.00
37202;BME280;37799;52.390;6.136;2022-09-25T05:22:41;101552.50;;;5.82;100.00
37202;BME280;37799;52.390;6.136;2022-09-25T05:25:07;101544.00;;;5.89;100.00
37202;BME280;37799;52.390;6.136;2022-09-25T05:27:33;101538.94;;;6.00;100.00
37202;BME280;37799;52.390;6.136;2022-09-25T05:29:59;101539.78;;;6.02;100.00
37202;BME280;37799;52.390;6.136;2022-09-25T05:32:25;101539.81;;;6.05;100.00
37202;BME280;37799;52.390;6.136;2022-09-25T05:34:50;101536.38;;;6.09;100.00
37202;BME280;37799;52.390;6.136;2022-09-25T05:37:15;101535.56;;;6.13;100.00
37202;BME280;37799;52.390;6.136;2022-09-25T05:39:41;101528.72;;;6.19;100.00
37202;BME280;37799;52.390;6.136;2022-09-25T05:42:06;101523.59;;;6.29;100.00
37202;BME280;37799;52.390;6.136;2022-09-25T05:44:32;101515.03;;;6.34;100.00
37202;BME280;37799;52.390;6.136;2022-09-25T05:46:57;101515.06;;;6.49;100.00
37202;BME280;37799;52.390;6.136;2022-09-25T05:49:22;101510.78;;;6.61;100.00
37202;BME280;37799;52.390;6.136;2022-09-25T05:51:48;101514.22;;;6.76;100.00
37202;BME280;37799;52.390;6.136;2022-09-25T05:54:13;101519.38;;;6.84;100.00
37202;BME280;37799;52.390;6.136;2022-09-25T05:56:38;101516.81;;;6.93;100.00
37202;BME280;37799;52.390;6.136;2022-09-25T05:59:04;101529.69;;;7.05;100.00
37202;BME280;37799;52.390;6.136;2022-09-25T06:01:29;101533.13;;;7.20;100.00
37202;BME280;37799;52.390;6.136;2022-09-25T06:03:54;101534.81;;;7.33;100.00
37202;BME280;37799;52.390;6.136;2022-09-25T06:06:20;101532.22;;;7.47;100.00
37202;BME280;37799;52.390;6.136;2022-09-25T06:08:45;101535.63;;;7.59;100.00
37202;BME280;37799;52.390;6.136;2022-09-25T06:11:10;101525.28;;;7.72;100.00
37202;BME280;37799;52.390;6.136;2022-09-25T06:13:36;101530.41;;;7.82;100.00
37202;BME280;37799;52.390;6.136;2022-09-25T06:16:03;101532.91;;;7.93;100.00
37202;BME280;37799;52.390;6.136;2022-09-25T06:18:29;101538.00;;;8.07;100.00
37202;BME280;37799;52.390;6.136;2022-09-25T06:21:03;101539.69;;;8.20;100.00
37202;BME280;37799;52.390;6.136;2022-09-25T06:23:29;101537.94;;;8.34;100.00
37202;BME280;37799;52.390;6.136;2022-09-25T06:25:59;101545.56;;;8.51;100.00
37202;BME280;37799;52.390;6.136;2022-09-25T06:28:25;101544.59;;;8.67;100.00
37202;BME280;37799;52.390;6.136;2022-09-25T06:30:51;101545.34;;;8.81;100.00
37202;BME280;37799;52.390;6.136;2022-09-25T06:33:16;101537.56;;;8.91;100.00
37202;BME280;37799;52.390;6.136;2022-09-25T06:35:43;101543.50;;;9.00;100.00
37202;BME280;37799;52.390;6.136;2022-09-25T06:38:09;101546.88;;;9.07;100.00
37202;BME280;37799;52.390;6.136;2022-09-25T06:40:34;101550.28;;;9.10;100.00
37202;BME280;37799;52.390;6.136;2022-09-25T06:43:03;101555.47;;;9.10;100.00
37202;BME280;37799;52.390;6.136;2022-09-25T06:45:30;101546.00;;;9.08;100.00
37202;BME280;37799;52.390;6.136;2022-09-25T06:48:02;101549.53;;;9.01;100.00
37202;BME280;37799;52.390;6.136;2022-09-25T06:50:53;101547.84;;;8.94;100.00
37202;BME280;37799;52.390;6.136;2022-09-25T06:53:18;101555.66;;;8.89;100.00
37202;BME280;37799;52.390;6.136;2022-09-25T06:55:44;101552.19;;;8.92;100.00
37202;BME280;37799;52.390;6.136;2022-09-25T06:58:12;101559.81;;;9.07;100.00
37202;BME280;37799;52.390;6.136;2022-09-25T07:00:38;101563.06;;;9.30;100.00
37202;BME280;37799;52.390;6.136;2022-09-25T07:03:03;101565.41;;;9.55;100.00
37202;BME280;37799;52.390;6.136;2022-09-25T07:05:47;101566.72;;;9.89;100.00
37202;BME280;37799;52.390;6.136;2022-09-25T07:08:17;101566.31;;;10.29;100.00
37202;BME280;37799;52.390;6.136;2022-09-25T07:10:53;101560.22;;;10.90;100.00
37202;BME280;37799;52.390;6.136;2022-09-25T07:13:20;101556.22;;;11.25;100.00
37202;BME280;37799;52.390;6.136;2022-09-25T07:15:59;101563.16;;;11.22;100.00
37202;BME280;37799;52.390;6.136;2022-09-25T07:18:27;101565.56;;;11.32;100.00
37202;BME280;37799;52.390;6.136;2022-09-25T07:20:53;101565.22;;;11.53;100.00
37202;BME280;37799;52.390;6.136;2022-09-25T07:23:23;101564.00;;;12.17;100.00
37202;BME280;37799;52.390;6.136;2022-09-25T07:25:48;101565.22;;;12.78;100.00
37202;BME280;37799;52.390;6.136;2022-09-25T07:28:14;101570.59;;;13.74;100.00
37202;BME280;37799;52.390;6.136;2022-09-25T07:30:40;101571.22;;;14.72;100.00
37202;BME280;37799;52.390;6.136;2022-09-25T07:33:06;101571.03;;;15.56;100.00
37202;BME280;37799;52.390;6.136;2022-09-25T07:35:35;101564.88;;;16.52;100.00
37202;BME280;37799;52.390;6.136;2022-09-25T07:38:01;101579.19;;;17.30;100.00
37202;BME280;37799;52.390;6.136;2022-09-25T07:40:27;101580.81;;;17.75;100.00
37202;BME280;37799;52.390;6.136;2022-09-25T07:42:59;101577.75;;;18.23;100.00
37202;BME280;37799;52.390;6.136;2022-09-25T07:45:24;101580.94;;;18.67;100.00
37202;BME280;37799;52.390;6.136;2022-09-25T07:47:54;101580.94;;;18.30;100.00
37202;BME280;37799;52.390;6.136;2022-09-25T07:50:19;101579.59;;;18.95;100.00
37202;BME280;37799;52.390;6.136;2022-09-25T07:52:45;101581.09;;;19.35;100.00
37202;BME280;37799;52.390;6.136;2022-09-25T07:55:10;101581.00;;;19.71;100.00
37202;BME280;37799;52.390;6.136;2022-09-25T07:57:35;101580.13;;;20.03;100.00
37202;BME280;37799;52.390;6.136;2022-09-25T08:00:01;101582.47;;;20.25;100.00
37202;BME280;37799;52.390;6.136;2022-09-25T08:02:26;101578.16;;;20.56;100.00
37202;BME280;37799;52.390;6.136;2022-09-25T08:04:51;101587.94;;;21.15;96.10
37202;BME280;37799;52.390;6.136;2022-09-25T08:07:18;101583.97;;;21.38;88.99
37202;BME280;37799;52.390;6.136;2022-09-25T08:09:43;101588.84;;;21.89;92.44
37202;BME280;37799;52.390;6.136;2022-09-25T08:12:10;101582.88;;;21.99;86.34
37202;BME280;37799;52.390;6.136;2022-09-25T08:14:37;101587.25;;;22.15;88.49
37202;BME280;37799;52.390;6.136;2022-09-25T08:17:02;101587.41;;;21.83;84.92
37202;BME280;37799;52.390;6.136;2022-09-25T08:19:27;101584.25;;;21.18;88.24
37202;BME280;37799;52.390;6.136;2022-09-25T08:21:52;101584.88;;;21.07;85.51
37202;BME280;37799;52.390;6.136;2022-09-25T08:24:18;101580.19;;;21.28;93.91
37202;BME280;37799;52.390;6.136;2022-09-25T08:26:43;101584.47;;;21.73;87.11
37202;BME280;37799;52.390;6.136;2022-09-25T08:29:10;101583.88;;;22.40;83.93
37202;BME280;37799;52.390;6.136;2022-09-25T08:31:35;101582.31;;;21.94;80.04
37202;BME280;37799;52.390;6.136;2022-09-25T08:34:00;101588.94;;;22.16;76.75
37202;BME280;37799;52.390;6.136;2022-09-25T08:36:26;101579.22;;;22.30;75.43
37202;BME280;37799;52.390;6.136;2022-09-25T08:38:51;101586.78;;;22.08;75.01
37202;BME280;37799;52.390;6.136;2022-09-25T08:41:29;101588.00;;;21.30;81.54
37202;BME280;37799;52.390;6.136;2022-09-25T08:50:17;101595.28;;;21.40;79.98
37202;BME280;37799;52.390;6.136;2022-09-25T08:52:48;101581.09;;;21.71;81.29
37202;BME280;37799;52.390;6.136;2022-09-25T08:55:28;101582.56;;;22.47;76.59
37202;BME280;37799;52.390;6.136;2022-09-25T08:58:21;101584.72;;;22.54;79.64
37202;BME280;37799;52.390;6.136;2022-09-25T09:00:51;101579.78;;;21.64;84.16
37202;BME280;37799;52.390;6.136;2022-09-25T09:03:17;101588.44;;;21.66;82.69
37202;BME280;37799;52.390;6.136;2022-09-25T09:05:44;101598.13;;;21.66;78.29
37202;BME280;37799;52.390;6.136;2022-09-25T09:08:19;101582.00;;;21.42;78.98
37202;BME280;37799;52.390;6.136;2022-09-25T09:10:56;101591.19;;;21.93;77.44
37202;BME280;37799;52.390;6.136;2022-09-25T09:13:32;101596.28;;;22.11;80.22
37202;BME280;37799;52.390;6.136;2022-09-25T09:18:31;101582.88;;;21.57;82.77
37202;BME280;37799;52.390;6.136;2022-09-25T09:21:36;101586.53;;;20.94;78.66
37202;BME280;37799;52.390;6.136;2022-09-25T09:29:53;101585.44;;;22.29;75.83
37202;BME280;37799;52.390;6.136;2022-09-25T09:32:36;101584.31;;;22.05;74.83
37202;BME280;37799;52.390;6.136;2022-09-25T09:40:39;101579.44;;;23.61;67.84
37202;BME280;37799;52.390;6.136;2022-09-25T09:49:04;101572.16;;;22.31;66.43
37202;BME280;37799;52.390;6.136;2022-09-25T09:51:35;101574.63;;;21.91;67.69
37202;BME280;37799;52.390;6.136;2022-09-25T09:54:16;101562.56;;;22.16;67.11
37202;BME280;37799;52.390;6.136;2022-09-25T09:56:47;101573.34;;;22.40;61.70
37202;BME280;37799;52.390;6.136;2022-09-25T09:59:17;101570.38;;;22.17;64.58
37202;BME280;37799;52.390;6.136;2022-09-25T10:01:48;101564.81;;;21.65;66.12
37202;BME280;37799;52.390;6.136;2022-09-25T10:04:18;101566.13;;;21.58;67.27
37202;BME280;37799;52.390;6.136;2022-09-25T10:07:11;101561.06;;;21.25;67.11
37202;BME280;37799;52.390;6.136;2022-09-25T10:09:38;101560.78;;;21.88;73.43
37202;BME280;37799;52.390;6.136;2022-09-25T10:12:14;101556.81;;;22.77;68.48
37202;BME280;37799;52.390;6.136;2022-09-25T10:14:45;101550.25;;;22.70;62.38
37202;BME280;37799;52.390;6.136;2022-09-25T10:17:12;101554.69;;;21.29;64.80
37202;BME280;37799;52.390;6.136;2022-09-25T10:19:53;101549.50;;;20.97;66.76
37202;BME280;37799;52.390;6.136;2022-09-25T10:22:33;101550.59;;;21.53;68.67
37202;BME280;37799;52.390;6.136;2022-09-25T10:25:01;101555.34;;;21.02;65.33
37202;BME280;37799;52.390;6.136;2022-09-25T10:27:31;101543.34;;;20.67;70.38
37202;BME280;37799;52.390;6.136;2022-09-25T10:32:33;101544.56;;;20.61;71.45
37202;BME280;37799;52.390;6.136;2022-09-25T10:34:59;101546.69;;;21.30;70.83
37202;BME280;37799;52.390;6.136;2022-09-25T10:37:30;101544.63;;;21.05;66.19
37202;BME280;37799;52.390;6.136;2022-09-25T10:40:04;101549.03;;;21.35;61.95
37202;BME280;37799;52.390;6.136;2022-09-25T10:42:38;101547.84;;;21.55;67.00
37202;BME280;37799;52.390;6.136;2022-09-25T10:47:55;101542.47;;;22.27;63.53
37202;BME280;37799;52.390;6.136;2022-09-25T10:50:39;101544.63;;;21.35;60.99
37202;BME280;37799;52.390;6.136;2022-09-25T10:53:04;101543.41;;;20.97;66.52
37202;BME280;37799;52.390;6.136;2022-09-25T10:55:36;101538.09;;;20.67;66.57
37202;BME280;37799;52.390;6.136;2022-09-25T10:58:28;101536.72;;;21.35;64.21
37202;BME280;37799;52.390;6.136;2022-09-25T11:00:58;101533.34;;;21.33;66.63
37202;BME280;37799;52.390;6.136;2022-09-25T11:03:31;101531.75;;;22.02;63.16
37202;BME280;37799;52.390;6.136;2022-09-25T11:06:02;101529.50;;;22.10;58.83
37202;BME280;37799;52.390;6.136;2022-09-25T11:08:33;101535.34;;;21.72;58.17
37202;BME280;37799;52.390;6.136;2022-09-25T11:11:00;101535.63;;;21.82;62.97
37202;BME280;37799;52.390;6.136;2022-09-25T11:16:04;101529.28;;;21.99;59.55
37202;BME280;37799;52.390;6.136;2022-09-25T11:18:51;101528.03;;;22.60;53.62
37202;BME280;37799;52.390;6.136;2022-09-25T11:21:36;101532.22;;;23.16;54.45
37202;BME280;37799;52.390;6.136;2022-09-25T11:24:16;101526.09;;;23.16;50.92
37202;BME280;37799;52.390;6.136;2022-09-25T11:27:00;101522.75;;;22.87;51.70
37202;BME280;37799;52.390;6.136;2022-09-25T11:32:43;101518.31;;;22.33;55.43
37202;BME280;37799;52.390;6.136;2022-09-25T11:38:32;101514.16;;;20.71;65.55
37202;BME280;37799;52.390;6.136;2022-09-25T11:41:40;101502.97;;;20.36;67.32
37202;BME280;37799;52.390;6.136;2022-09-25T11:44:28;101503.25;;;20.31;72.71
37202;BME280;37799;52.390;6.136;2022-09-25T11:49:35;101505.25;;;21.18;68.39
37202;BME280;37799;52.390;6.136;2022-09-25T11:52:27;101508.31;;;21.40;65.25
37202;BME280;37799;52.390;6.136;2022-09-25T11:58:08;101503.97;;;19.86;67.54
37202;BME280;37799;52.390;6.136;2022-09-25T12:03:51;101493.44;;;18.85;70.27
37202;BME280;37799;52.390;6.136;2022-09-25T12:11:55;101498.72;;;18.49;77.40
37202;BME280;37799;52.390;6.136;2022-09-25T12:14:34;101494.06;;;18.37;80.13
37202;BME280;37799;52.390;6.136;2022-09-25T12:17:16;101489.00;;;18.51;79.82
37202;BME280;37799;52.390;6.136;2022-09-25T12:19:46;101488.13;;;18.70;77.37
37202;BME280;37799;52.390;6.136;2022-09-25T12:22:19;101487.13;;;18.90;75.44
37202;BME280;37799;52.390;6.136;2022-09-25T12:28:17;101484.03;;;18.64;74.75
37202;BME280;37799;52.390;6.136;2022-09-25T12:34:04;101477.25;;;18.58;78.18
37202;BME280;37799;52.390;6.136;2022-09-25T12:37:13;101476.41;;;18.41;76.09
37202;BME280;37799;52.390;6.136;2022-09-25T12:39:30;101474.91;;;18.71;77.65
37202;BME280;37799;52.390;6.136;2022-09-25T12:42:20;101469.38;;;18.77;77.94
37202;BME280;37799;52.390;6.136;2022-09-25T12:44:55;101475.88;;;18.15;75.99
37202;BME280;37799;52.390;6.136;2022-09-25T12:47:32;101464.81;;;18.09;82.10
37202;BME280;37799;52.390;6.136;2022-09-25T12:50:07;101453.00;;;17.81;79.43
37202;BME280;37799;52.390;6.136;2022-09-25T12:52:41;101455.44;;;17.65;79.07
37202;BME280;37799;52.390;6.136;2022-09-25T12:55:25;101456.28;;;17.47;83.78
37202;BME280;37799;52.390;6.136;2022-09-25T13:00:48;101443.19;;;17.47;84.74
37202;BME280;37799;52.390;6.136;2022-09-25T13:03:26;101442.00;;;17.54;88.17
37202;BME280;37799;52.390;6.136;2022-09-25T13:06:10;101441.84;;;17.57;84.74
37202;BME280;37799;52.390;6.136;2022-09-25T13:08:47;101441.34;;;17.68;88.59
37202;BME280;37799;52.390;6.136;2022-09-25T13:13:49;101433.81;;;17.81;85.33
37202;BME280;37799;52.390;6.136;2022-09-25T13:16:18;101434.25;;;17.90;86.84
37202;BME280;37799;52.390;6.136;2022-09-25T13:18:48;101431.75;;;18.06;79.05
37202;BME280;37799;52.390;6.136;2022-09-25T13:21:38;101428.56;;;18.36;75.03
37202;BME280;37799;52.390;6.136;2022-09-25T13:24:10;101422.91;;;18.62;77.27
37202;BME280;37799;52.390;6.136;2022-09-25T13:26:51;101428.91;;;19.16;72.12
37202;BME280;37799;52.390;6.136;2022-09-25T13:29:27;101429.72;;;19.50;71.88
37202;BME280;37799;52.390;6.136;2022-09-25T13:32:26;101424.00;;;19.90;77.73
37202;BME280;37799;52.390;6.136;2022-09-25T13:35:04;101421.56;;;19.87;77.52
37202;BME280;37799;52.390;6.136;2022-09-25T13:37:33;101425.88;;;19.88;74.72
37202;BME280;37799;52.390;6.136;2022-09-25T13:40:06;101421.56;;;19.71;78.41
37202;BME280;37799;52.390;6.136;2022-09-25T13:42:50;101425.56;;;19.30;80.03
37202;BME280;37799;52.390;6.136;2022-09-25T13:45:26;101428.78;;;18.84;79.44
37202;BME280;37799;52.390;6.136;2022-09-25T13:50:27;101412.59;;;17.87;79.05
37202;BME280;37799;52.390;6.136;2022-09-25T14:03:57;101418.03;;;16.21;100.00
37202;BME280;37799;52.390;6.136;2022-09-25T14:06:24;101410.38;;;15.95;100.00
37202;BME280;37799;52.390;6.136;2022-09-25T14:08:53;101406.53;;;15.81;100.00
37202;BME280;37799;52.390;6.136;2022-09-25T14:11:25;101402.16;;;15.58;100.00
37202;BME280;37799;52.390;6.136;2022-09-25T14:13:52;101402.66;;;15.45;100.00
37202;BME280;37799;52.390;6.136;2022-09-25T14:16:26;101406.75;;;15.52;100.00
37202;BME280;37799;52.390;6.136;2022-09-25T14:18:55;101402.13;;;15.60;100.00
37202;BME280;37799;52.390;6.136;2022-09-25T14:21:22;101393.00;;;15.47;100.00
37202;BME280;37799;52.390;6.136;2022-09-25T14:23:50;101385.09;;;15.50;100.00
37202;BME280;37799;52.390;6.136;2022-09-25T14:26:33;101391.59;;;15.63;100.00
37202;BME280;37799;52.390;6.136;2022-09-25T14:28:59;101386.09;;;15.92;100.00
37202;BME280;37799;52.390;6.136;2022-09-25T14:31:40;101377.81;;;16.03;100.00
37202;BME280;37799;52.390;6.136;2022-09-25T14:37:11;101377.84;;;16.23;100.00
37202;BME280;37799;52.390;6.136;2022-09-25T14:40:17;101371.63;;;16.06;100.00
37202;BME280;37799;52.390;6.136;2022-09-25T14:42:57;101364.75;;;16.03;100.00
37202;BME280;37799;52.390;6.136;2022-09-25T14:48:36;101357.41;;;15.69;100.00
37202;BME280;37799;52.390;6.136;2022-09-25T14:51:07;101359.22;;;15.67;100.00
37202;BME280;37799;52.390;6.136;2022-09-25T14:53:41;101360.78;;;15.71;100.00
37202;BME280;37799;52.390;6.136;2022-09-25T14:56:09;101359.53;;;15.58;100.00
37202;BME280;37799;52.390;6.136;2022-09-25T14:58:47;101353.19;;;15.42;100.00
37202;BME280;37799;52.390;6.136;2022-09-25T15:01:24;101351.97;;;15.28;100.00
37202;BME280;37799;52.390;6.136;2022-09-25T15:03:52;101345.50;;;15.15;100.00
37202;BME280;37799;52.390;6.136;2022-09-25T15:06:30;101349.66;;;14.96;100.00